createdAt,value
2018-06-18T00:00:54.164Z,99.90
2018-06-18T00:03:21.966Z,99.90
2018-06-18T00:08:17.946Z,99.90
2018-06-18T00:10:46.121Z,99.90
2018-06-18T00:13:14.003Z,99.90
2018-06-18T00:15:41.905Z,99.90
2018-06-18T00:18:10.057Z,99.90
2018-06-18T00:20:38.205Z,99.90
2018-06-18T00:23:05.981Z,99.90
2018-06-18T00:25:33.839Z,99.90
2018-06-18T00:28:01.605Z,99.90
2018-06-18T00:30:29.778Z,99.90
2018-06-18T00:32:57.542Z,99.90
2018-06-18T00:35:25.456Z,99.90
2018-06-18T00:37:53.178Z,99.90
2018-06-18T00:40:21.348Z,99.90
2018-06-18T00:42:49.074Z,99.90
2018-06-18T00:45:16.990Z,99.90
2018-06-18T00:47:45.226Z,99.90
2018-06-18T00:50:13.012Z,99.90
2018-06-18T00:52:41.218Z,99.90
2018-06-18T00:55:09.114Z,99.90
2018-06-18T00:57:37.190Z,99.90
2018-06-18T01:00:05.296Z,99.90
2018-06-18T01:02:33.026Z,99.90
2018-06-18T01:05:01.101Z,99.90
2018-06-18T01:07:29.219Z,99.90
2018-06-18T01:09:56.994Z,99.90
2018-06-18T01:12:25.091Z,99.90
2018-06-18T01:14:53.099Z,99.90
2018-06-18T01:17:20.910Z,99.90
2018-06-18T01:19:49.217Z,99.90
2018-06-18T01:22:16.976Z,99.90
2018-06-18T01:24:55.954Z,99.90
2018-06-18T01:27:24.215Z,99.90
2018-06-18T01:29:52.291Z,99.90
2018-06-18T01:32:20.190Z,99.90
2018-06-18T01:34:47.976Z,99.90
2018-06-18T01:37:16.364Z,99.90
2018-06-18T01:39:44.643Z,99.90
2018-06-18T01:42:12.513Z,99.90
2018-06-18T01:44:40.290Z,99.90
2018-06-18T01:47:08.337Z,99.90
2018-06-18T01:49:36.571Z,99.90
2018-06-18T01:52:04.600Z,99.90
2018-06-18T01:54:32.621Z,99.90
2018-06-18T01:57:00.693Z,99.90
2018-06-18T01:59:28.716Z,99.90
2018-06-18T02:01:57.754Z,99.90
2018-06-18T02:04:26.430Z,99.90
2018-06-18T02:06:54.402Z,99.90
2018-06-18T02:09:23.629Z,99.90
2018-06-18T02:11:52.009Z,99.90
2018-06-18T02:14:20.219Z,99.90
2018-06-18T02:16:48.339Z,99.90
2018-06-18T02:19:16.391Z,99.90
2018-06-18T02:21:44.461Z,99.90
2018-06-18T02:24:12.548Z,99.90
2018-06-18T02:26:40.261Z,99.90
2018-06-18T02:29:13.726Z,99.90
2018-06-18T02:31:47.517Z,99.90
2018-06-18T02:34:21.334Z,99.90
2018-06-18T02:36:54.729Z,99.90
2018-06-18T02:39:22.509Z,99.90
2018-06-18T02:41:50.537Z,99.90
2018-06-18T02:44:18.301Z,99.90
2018-06-18T02:46:46.173Z,99.90
2018-06-18T02:49:14.277Z,99.90
2018-06-18T02:51:42.183Z,99.90
2018-06-18T02:54:10.275Z,99.90
2018-06-18T02:56:46.725Z,99.90
2018-06-18T02:59:14.852Z,99.90
2018-06-18T03:01:42.867Z,99.90
2018-06-18T03:04:11.685Z,99.90
2018-06-18T03:06:39.681Z,99.90
2018-06-18T03:09:09.510Z,99.90
2018-06-18T03:11:37.849Z,99.90
2018-06-18T03:14:06.588Z,99.90
2018-06-18T03:16:34.613Z,99.90
2018-06-18T03:19:08.071Z,99.90
2018-06-18T03:21:41.536Z,99.90
2018-06-18T03:24:11.158Z,99.90
2018-06-18T03:26:44.779Z,99.90
2018-06-18T03:29:16.893Z,99.90
2018-06-18T03:31:45.353Z,99.90
2018-06-18T03:34:13.089Z,99.90
2018-06-18T03:36:41.613Z,99.90
2018-06-18T03:39:11.852Z,99.90
2018-06-18T03:41:40.128Z,99.90
2018-06-18T03:44:11.714Z,99.90
2018-06-18T03:46:39.747Z,99.90
2018-06-18T03:49:07.887Z,99.90
2018-06-18T03:51:35.683Z,99.90
2018-06-18T03:54:03.823Z,99.90
2018-06-18T03:56:31.569Z,99.90
2018-06-18T03:58:59.383Z,99.90
2018-06-18T04:01:49.358Z,99.90
2018-06-18T04:04:23.012Z,99.90
2018-06-18T04:06:56.518Z,99.90
2018-06-18T04:09:30.171Z,99.90
2018-06-18T04:12:05.460Z,99.90
2018-06-18T04:14:33.604Z,99.90
2018-06-18T04:17:01.967Z,99.90
2018-06-18T04:19:30.095Z,99.90
2018-06-18T04:21:58.263Z,99.90
2018-06-18T04:24:26.327Z,99.90
2018-06-18T04:26:54.883Z,99.90
2018-06-18T04:29:22.663Z,99.90
2018-06-18T04:31:52.144Z,99.90
2018-06-18T04:34:30.759Z,99.90
2018-06-18T04:36:59.027Z,99.90
2018-06-18T04:39:27.223Z,99.90
2018-06-18T04:42:00.546Z,99.90
2018-06-18T04:44:33.854Z,99.90
2018-06-18T04:47:07.354Z,99.90
2018-06-18T04:49:40.814Z,99.90
2018-06-18T04:52:09.846Z,99.90
2018-06-18T04:54:37.784Z,99.90
2018-06-18T04:57:05.863Z,99.90
2018-06-18T04:59:35.353Z,99.90
2018-06-18T05:02:04.425Z,99.90
2018-06-18T05:04:32.628Z,99.90
2018-06-18T05:07:00.475Z,99.90
2018-06-18T05:10:09.976Z,99.90
2018-06-18T05:12:37.876Z,99.90
2018-06-18T05:15:05.596Z,99.90
2018-06-18T05:17:33.366Z,99.90
2018-06-18T05:20:01.468Z,99.90
2018-06-18T05:22:29.533Z,99.90
2018-06-18T05:24:57.261Z,99.90
2018-06-18T05:27:28.675Z,96.60
2018-06-18T05:29:58.689Z,91.60
2018-06-18T05:32:26.444Z,86.50
2018-06-18T05:34:54.597Z,83.00
2018-06-18T05:37:29.993Z,79.70
2018-06-18T05:39:58.428Z,79.40
2018-06-18T05:42:26.497Z,76.70
2018-06-18T05:44:54.279Z,75.30
2018-06-18T05:47:22.175Z,74.50
2018-06-18T05:49:50.215Z,75.20
2018-06-18T05:52:18.419Z,76.00
2018-06-18T05:54:46.242Z,76.70
2018-06-18T05:57:14.649Z,77.90
2018-06-18T05:59:42.514Z,79.90
2018-06-18T06:02:10.305Z,80.10
2018-06-18T06:04:38.688Z,80.70
2018-06-18T06:07:06.454Z,78.90
2018-06-18T06:09:34.878Z,80.70
2018-06-18T06:12:03.154Z,80.40
2018-06-18T06:14:30.900Z,80.30
2018-06-18T06:16:58.689Z,81.00
2018-06-18T06:19:26.410Z,82.00
2018-06-18T06:21:54.718Z,80.60
2018-06-18T06:24:22.948Z,79.60
2018-06-18T06:26:51.094Z,78.20
2018-06-18T06:29:19.220Z,74.60
2018-06-18T06:31:47.070Z,72.60
2018-06-18T06:34:15.104Z,70.60
2018-06-18T06:36:43.196Z,69.30
2018-06-18T06:39:11.902Z,66.60
2018-06-18T06:41:42.195Z,64.80
2018-06-18T06:44:10.262Z,63.10
2018-06-18T06:46:39.075Z,62.30
2018-06-18T06:49:07.238Z,58.80
2018-06-18T06:51:35.096Z,57.50
2018-06-18T06:54:02.977Z,56.60
2018-06-18T06:56:30.911Z,56.60
2018-06-18T06:58:58.812Z,55.30
2018-06-18T07:01:26.992Z,52.90
2018-06-18T07:03:55.116Z,50.30
2018-06-18T07:06:22.906Z,49.30
2018-06-18T07:08:50.759Z,48.40
2018-06-18T07:11:18.596Z,47.70
2018-06-18T07:13:46.372Z,46.50
2018-06-18T07:16:14.190Z,46.10
2018-06-18T07:18:42.454Z,45.70
2018-06-18T07:21:10.748Z,45.30
2018-06-18T07:23:38.602Z,43.70
2018-06-18T07:26:06.667Z,43.70
2018-06-18T07:28:34.482Z,42.70
2018-06-18T07:31:02.787Z,40.80
2018-06-18T07:33:31.154Z,39.60
2018-06-18T07:35:59.047Z,40.00
2018-06-18T07:38:27.081Z,38.40
2018-06-18T07:40:55.044Z,37.70
2018-06-18T07:43:22.846Z,36.80
2018-06-18T07:45:50.821Z,35.10
2018-06-18T07:48:18.599Z,35.20
2018-06-18T07:50:46.317Z,35.40
2018-06-18T07:53:14.143Z,34.90
2018-06-18T07:55:42.154Z,35.10
2018-06-18T07:58:10.194Z,33.70
2018-06-18T08:00:38.161Z,33.30
2018-06-18T08:03:06.196Z,32.10
2018-06-18T08:05:34.262Z,31.60
2018-06-18T08:08:02.466Z,30.30
2018-06-18T08:10:30.330Z,29.90
2018-06-18T08:12:58.381Z,30.30
2018-06-18T08:15:26.698Z,29.10
2018-06-18T08:17:54.475Z,29.20
2018-06-18T08:20:22.278Z,29.80
2018-06-18T08:22:50.163Z,29.80
2018-06-18T08:25:18.244Z,29.60
2018-06-18T08:27:46.364Z,28.80
2018-06-18T08:30:14.308Z,27.90
2018-06-18T08:32:42.370Z,28.40
2018-06-18T08:35:10.411Z,29.00
2018-06-18T08:37:38.279Z,28.60
2018-06-18T08:40:06.149Z,28.40
2018-06-18T08:42:33.908Z,28.00
2018-06-18T08:45:01.803Z,27.80
2018-06-18T08:47:29.849Z,27.90
2018-06-18T08:50:03.281Z,27.30
2018-06-18T08:52:36.739Z,27.00
2018-06-18T08:55:10.314Z,27.70
2018-06-18T08:57:43.614Z,28.00
2018-06-18T09:00:17.230Z,28.30
2018-06-18T09:02:52.467Z,29.80
2018-06-18T09:05:26.439Z,30.80
2018-06-18T09:07:58.976Z,32.60
2018-06-18T09:10:27.090Z,34.60
2018-06-18T09:12:54.860Z,35.80
2018-06-18T09:15:22.902Z,37.20
2018-06-18T09:17:50.842Z,39.50
2018-06-18T09:20:19.300Z,40.40
2018-06-18T09:22:47.374Z,40.70
2018-06-18T09:25:15.551Z,42.10
2018-06-18T09:27:43.854Z,42.50
2018-06-18T09:30:12.031Z,43.40
2018-06-18T09:32:40.297Z,42.80
2018-06-18T09:35:08.363Z,44.50
2018-06-18T09:37:36.117Z,45.10
2018-06-18T09:40:04.315Z,44.60
2018-06-18T09:42:32.995Z,44.00
2018-06-18T09:45:01.306Z,44.30
2018-06-18T09:47:29.145Z,41.80
2018-06-18T09:50:03.209Z,42.50
2018-06-18T09:55:10.182Z,43.90
2018-06-18T09:57:43.861Z,43.90
2018-06-18T10:00:26.935Z,44.30
2018-06-18T10:02:55.471Z,44.90
2018-06-18T10:05:23.744Z,44.60
2018-06-18T10:07:51.887Z,43.90
2018-06-18T10:10:20.072Z,42.10
2018-06-18T10:12:48.150Z,42.50
2018-06-18T10:15:15.906Z,43.90
2018-06-18T10:17:43.926Z,43.70
2018-06-18T10:20:12.268Z,45.20
2018-06-18T10:22:40.146Z,43.80
2018-06-18T10:25:07.902Z,43.60
2018-06-18T10:27:36.054Z,44.00
2018-06-18T10:30:04.176Z,44.70
2018-06-18T10:32:37.502Z,44.00
2018-06-18T10:35:11.258Z,45.10
2018-06-18T10:37:44.902Z,44.90
2018-06-18T10:40:18.251Z,45.70
2018-06-18T10:42:52.037Z,44.40
2018-06-18T10:45:19.814Z,44.40
2018-06-18T10:47:47.995Z,45.70
2018-06-18T10:50:15.965Z,45.30
2018-06-18T10:52:44.027Z,44.50
2018-06-18T10:55:11.762Z,44.90
2018-06-18T10:57:40.175Z,46.10
2018-06-18T11:00:09.705Z,46.20
2018-06-18T11:02:37.835Z,45.70
2018-06-18T11:05:06.028Z,46.10
2018-06-18T11:07:33.902Z,45.90
2018-06-18T11:10:01.752Z,45.20
2018-06-18T11:12:29.766Z,46.00
2018-06-18T11:14:57.495Z,45.70
2018-06-18T11:17:31.531Z,44.70
2018-06-18T11:20:05.393Z,45.10
2018-06-18T11:22:39.078Z,45.30
2018-06-18T11:25:12.662Z,44.90
2018-06-18T11:27:40.467Z,45.00
2018-06-18T11:30:08.498Z,44.60
2018-06-18T11:32:36.288Z,45.40
2018-06-18T11:35:05.210Z,45.70
2018-06-18T11:37:33.517Z,45.60
2018-06-18T11:40:01.556Z,46.10
2018-06-18T11:42:29.950Z,47.20
2018-06-18T11:44:57.734Z,47.50
2018-06-18T11:47:25.482Z,48.00
2018-06-18T11:49:53.238Z,48.20
2018-06-18T11:52:21.129Z,48.40
2018-06-18T11:54:48.934Z,48.70
2018-06-18T11:57:16.789Z,49.30
2018-06-18T11:59:50.271Z,49.50
2018-06-18T12:02:23.777Z,48.70
2018-06-18T12:04:57.279Z,48.60
2018-06-18T12:07:30.672Z,49.60
2018-06-18T12:09:58.804Z,49.80
2018-06-18T12:12:26.514Z,49.60
2018-06-18T12:14:54.848Z,49.60
2018-06-18T12:17:23.098Z,49.10
2018-06-18T12:19:51.154Z,48.40
2018-06-18T12:22:19.272Z,48.50
2018-06-18T12:24:47.334Z,49.20
2018-06-18T12:27:18.683Z,47.90
2018-06-18T12:29:46.762Z,48.10
2018-06-18T12:34:42.993Z,49.80
2018-06-18T12:37:11.148Z,49.40
2018-06-18T12:39:39.027Z,48.90
2018-06-18T12:42:07.753Z,49.30
2018-06-18T12:47:15.471Z,49.50
2018-06-18T12:49:49.147Z,50.00
2018-06-18T12:52:22.583Z,50.00
2018-06-18T12:54:55.929Z,50.50
2018-06-18T12:57:23.687Z,50.60
2018-06-18T12:59:51.765Z,49.60
2018-06-18T13:02:34.058Z,49.50
2018-06-18T13:05:02.251Z,49.30
2018-06-18T13:07:30.395Z,49.30
2018-06-18T13:09:58.632Z,48.90
2018-06-18T13:12:27.071Z,49.50
2018-06-18T13:14:55.083Z,50.30
2018-06-18T13:17:23.159Z,49.80
2018-06-18T13:19:51.248Z,50.70
2018-06-18T13:22:19.073Z,50.60
2018-06-18T13:24:47.231Z,51.00
2018-06-18T13:27:15.287Z,51.30
2018-06-18T13:29:43.457Z,50.40
2018-06-18T13:32:11.748Z,51.00
2018-06-18T13:34:39.836Z,50.80
2018-06-18T13:37:13.390Z,50.90
2018-06-18T13:39:46.823Z,50.30
2018-06-18T13:44:25.599Z,50.00
2018-06-18T13:46:59.060Z,51.90
2018-06-18T13:49:33.046Z,51.40
2018-06-18T13:52:00.860Z,51.40
2018-06-18T13:54:29.003Z,50.90
2018-06-18T13:56:57.058Z,51.10
2018-06-18T13:59:24.778Z,51.30
2018-06-18T14:01:52.822Z,51.20
2018-06-18T14:04:21.128Z,51.00
2018-06-18T14:06:49.220Z,51.70
2018-06-18T14:09:17.343Z,51.10
2018-06-18T14:11:46.030Z,50.90
2018-06-18T14:16:41.552Z,51.20
2018-06-18T14:19:15.081Z,51.20
2018-06-18T14:21:43.033Z,51.10
2018-06-18T14:26:39.090Z,51.30
2018-06-18T14:29:10.674Z,50.70
2018-06-18T14:31:44.658Z,51.10
2018-06-18T14:34:18.427Z,50.90
2018-06-18T14:36:51.832Z,50.70
2018-06-18T14:39:25.223Z,51.60
2018-06-18T14:41:53.113Z,51.70
2018-06-18T14:44:20.905Z,51.40
2018-06-18T14:46:48.722Z,51.50
2018-06-18T14:49:16.701Z,51.50
2018-06-18T14:51:44.812Z,52.10
2018-06-18T14:54:12.581Z,51.70
2018-06-18T14:56:40.723Z,52.20
2018-06-18T14:59:13.080Z,52.40
2018-06-18T15:01:40.847Z,52.40
2018-06-18T15:04:08.712Z,52.10
2018-06-18T15:06:36.486Z,52.50
2018-06-18T15:09:07.762Z,52.70
2018-06-18T15:11:35.473Z,52.60
2018-06-18T15:14:03.613Z,53.10
2018-06-18T15:16:32.287Z,53.40
2018-06-18T15:19:01.317Z,53.00
2018-06-18T15:21:31.641Z,52.40
2018-06-18T15:24:01.679Z,53.10
2018-06-18T15:26:30.064Z,52.70
2018-06-18T15:28:58.205Z,53.00
2018-06-18T15:31:26.400Z,53.10
2018-06-18T15:33:54.346Z,53.10
2018-06-18T15:36:22.480Z,53.60
2018-06-18T15:38:50.261Z,53.90
2018-06-18T15:41:18.161Z,54.00
2018-06-18T15:43:46.380Z,54.60
2018-06-18T15:46:14.168Z,54.20
2018-06-18T15:48:41.953Z,54.10
2018-06-18T15:51:09.854Z,54.10
2018-06-18T15:53:37.868Z,54.60
2018-06-18T15:56:05.885Z,54.50
2018-06-18T15:58:33.991Z,54.80
2018-06-18T16:01:01.825Z,55.20
2018-06-18T16:03:29.707Z,55.30
2018-06-18T16:05:57.472Z,55.60
2018-06-18T16:08:25.933Z,56.30
2018-06-18T16:10:54.016Z,56.60
2018-06-18T16:13:22.487Z,56.80
2018-06-18T16:15:50.263Z,57.20
2018-06-18T16:18:18.382Z,56.90
2018-06-18T16:20:46.218Z,56.70
2018-06-18T16:23:14.490Z,56.90
2018-06-18T16:25:42.984Z,56.90
2018-06-18T16:28:13.937Z,56.90
2018-06-18T16:30:42.348Z,58.00
2018-06-18T16:33:10.072Z,57.60
2018-06-18T16:35:38.165Z,57.90
2018-06-18T16:38:06.082Z,58.00
2018-06-18T16:40:34.438Z,58.30
2018-06-18T16:43:02.282Z,57.70
2018-06-18T16:45:30.316Z,58.40
2018-06-18T16:47:58.251Z,58.60
2018-06-18T16:50:26.243Z,58.30
2018-06-18T16:52:54.295Z,58.40
2018-06-18T16:55:22.583Z,58.40
2018-06-18T16:57:50.599Z,58.60
2018-06-18T17:00:18.464Z,59.60
2018-06-18T17:02:46.543Z,59.00
2018-06-18T17:05:14.352Z,58.50
2018-06-18T17:07:42.110Z,59.30
2018-06-18T17:10:09.895Z,59.10
2018-06-18T17:12:37.926Z,59.50
2018-06-18T17:15:05.830Z,60.10
2018-06-18T17:17:33.889Z,60.40
2018-06-18T17:20:01.750Z,60.50
2018-06-18T17:22:29.647Z,60.40
2018-06-18T17:24:57.751Z,60.00
2018-06-18T17:27:25.557Z,61.00
2018-06-18T17:29:53.737Z,60.40
2018-06-18T17:32:21.924Z,60.90
2018-06-18T17:34:50.417Z,60.60
2018-06-18T17:37:18.275Z,61.20
2018-06-18T17:39:46.343Z,61.50
2018-06-18T17:42:14.531Z,61.90
2018-06-18T17:44:42.628Z,62.90
2018-06-18T17:47:10.354Z,62.00
2018-06-18T17:49:38.821Z,62.50
2018-06-18T17:52:06.786Z,63.10
2018-06-18T17:54:34.886Z,63.00
2018-06-18T17:57:02.733Z,64.00
2018-06-18T17:59:30.550Z,63.70
2018-06-18T18:01:58.367Z,63.90
2018-06-18T18:04:26.188Z,63.70
2018-06-18T18:06:54.011Z,64.20
2018-06-18T18:09:22.134Z,64.50
2018-06-18T18:11:50.075Z,64.60
2018-06-18T18:14:18.137Z,65.10
2018-06-18T18:16:46.213Z,65.20
2018-06-18T18:19:14.275Z,65.10
2018-06-18T18:21:42.440Z,65.50
2018-06-18T18:26:38.327Z,65.60
2018-06-18T18:29:06.014Z,66.20
2018-06-18T18:31:33.780Z,66.30
2018-06-18T18:34:02.542Z,66.40
2018-06-18T18:36:30.644Z,66.80
2018-06-18T18:38:58.514Z,67.10
2018-06-18T18:41:26.326Z,67.50
2018-06-18T18:43:54.329Z,67.80
2018-06-18T18:46:22.208Z,67.90
2018-06-18T18:48:50.023Z,67.80
2018-06-18T18:51:18.099Z,68.30
2018-06-18T18:53:45.918Z,68.90
2018-06-18T18:56:25.100Z,69.20
2018-06-18T18:59:28.044Z,69.10
2018-06-18T19:01:56.165Z,69.50
2018-06-18T19:04:33.210Z,70.20
2018-06-18T19:07:01.519Z,70.80
2018-06-18T19:09:33.959Z,70.50
2018-06-18T19:14:29.539Z,72.10
2018-06-18T19:16:57.774Z,71.20
2018-06-18T19:19:28.998Z,71.50
2018-06-18T19:21:56.956Z,72.00
2018-06-18T19:24:24.790Z,72.30
2018-06-18T19:26:52.652Z,72.50
2018-06-18T19:29:20.470Z,72.40
2018-06-18T19:34:21.453Z,73.00
2018-06-18T19:36:51.868Z,73.50
2018-06-18T19:39:20.771Z,74.00
2018-06-18T19:41:49.202Z,74.80
2018-06-18T19:44:17.154Z,74.80
2018-06-18T19:47:52.284Z,75.40
2018-06-18T19:50:20.109Z,75.80
2018-06-18T19:52:48.207Z,76.40
2018-06-18T19:55:19.989Z,77.10
2018-06-18T19:57:47.795Z,76.70
2018-06-18T20:00:15.597Z,77.30
2018-06-18T20:02:43.490Z,77.40
2018-06-18T20:05:12.523Z,77.80
2018-06-18T20:08:47.132Z,78.00
2018-06-18T20:11:14.942Z,78.30
2018-06-18T20:13:42.990Z,78.70
2018-06-18T20:16:10.812Z,79.20
2018-06-18T20:18:38.632Z,79.70
2018-06-18T20:21:06.776Z,80.20
2018-06-18T20:23:34.678Z,80.70
2018-06-18T20:26:08.226Z,80.60
2018-06-18T20:28:36.183Z,81.90
2018-06-18T20:31:04.127Z,81.70
2018-06-18T20:33:33.608Z,82.00
2018-06-18T20:36:06.300Z,82.50
2018-06-18T20:38:34.167Z,83.10
2018-06-18T20:41:03.252Z,84.00
2018-06-18T20:43:46.910Z,84.10
2018-06-18T20:46:15.011Z,84.80
2018-06-18T20:48:43.388Z,85.70
2018-06-18T20:51:11.208Z,86.80
2018-06-18T20:53:38.956Z,87.60
2018-06-18T20:56:06.931Z,88.40
2018-06-18T20:58:35.118Z,89.20
2018-06-18T21:01:03.427Z,90.00
2018-06-18T21:03:32.056Z,90.60
2018-06-18T21:06:00.151Z,91.10
2018-06-18T21:08:28.047Z,91.90
2018-06-18T21:10:55.983Z,92.40
2018-06-18T21:13:25.070Z,93.20
2018-06-18T21:15:53.229Z,94.10
2018-06-18T21:18:21.112Z,95.00
2018-06-18T21:20:49.034Z,95.90
2018-06-18T21:23:16.802Z,97.00
2018-06-18T21:25:45.346Z,98.20
2018-06-18T21:28:14.508Z,99.00
2018-06-18T21:30:42.496Z,99.90
2018-06-18T21:33:10.531Z,99.90
2018-06-18T21:35:39.402Z,99.90
2018-06-18T21:38:07.150Z,99.90
2018-06-18T21:40:35.271Z,99.90
2018-06-18T21:43:03.066Z,99.90
2018-06-18T21:45:31.223Z,99.90
2018-06-18T21:47:59.317Z,99.90
2018-06-18T21:50:27.318Z,99.90
2018-06-18T21:52:55.139Z,99.90
2018-06-18T21:55:23.243Z,99.90
2018-06-18T21:57:51.410Z,99.90
2018-06-18T22:00:37.215Z,99.90
2018-06-18T22:03:05.192Z,99.90
2018-06-18T22:05:32.918Z,99.90
2018-06-18T22:08:01.918Z,99.90
2018-06-18T22:10:29.817Z,99.90
2018-06-18T22:12:57.992Z,99.90
2018-06-18T22:15:26.133Z,99.90
2018-06-18T22:17:53.908Z,99.90
2018-06-18T22:20:21.726Z,99.90
2018-06-18T22:22:49.945Z,99.90
2018-06-18T22:25:17.805Z,99.90
2018-06-18T22:30:14.181Z,99.90
2018-06-18T22:32:42.052Z,99.90
2018-06-18T22:35:09.883Z,99.90
2018-06-18T22:37:37.701Z,99.90
2018-06-18T22:40:05.646Z,99.90
2018-06-18T22:42:33.409Z,99.90
2018-06-18T22:45:01.173Z,99.90
2018-06-18T22:47:29.515Z,99.90
2018-06-18T22:49:57.273Z,99.90
2018-06-18T22:52:25.105Z,99.90
2018-06-18T22:54:52.950Z,99.90
2018-06-18T22:57:20.783Z,99.90
2018-06-18T22:59:48.697Z,99.90
2018-06-18T23:02:20.568Z,99.90
2018-06-18T23:04:48.374Z,99.90
2018-06-18T23:07:16.754Z,99.90
2018-06-18T23:09:44.850Z,99.90
2018-06-18T23:12:12.790Z,99.90
2018-06-18T23:14:41.086Z,99.90
2018-06-18T23:17:09.137Z,99.90
2018-06-18T23:19:37.222Z,99.90
2018-06-18T23:22:05.217Z,99.90
2018-06-18T23:24:33.385Z,99.90
2018-06-18T23:27:02.472Z,99.90
2018-06-18T23:29:31.032Z,99.90
2018-06-18T23:31:59.033Z,99.90
2018-06-18T23:34:26.881Z,99.90
2018-06-18T23:36:55.756Z,99.90
2018-06-18T23:39:23.670Z,99.90
2018-06-18T23:41:53.656Z,99.90
2018-06-18T23:44:21.756Z,99.90
2018-06-18T23:46:49.675Z,99.90
2018-06-18T23:49:17.562Z,99.90
2018-06-18T23:51:45.614Z,99.90
2018-06-18T23:54:13.699Z,99.90
2018-06-18T23:56:41.915Z,99.90
2018-06-18T23:59:10.063Z,99.90
